sensor_id;sensor_type;location;lat;lon;timestamp;pressure;altitude;pressure_sealevel;temperature;humidity
30873;BME280;17579;42.690;2.586;2023-04-28T00:01:41;97216.69;;;19.64;50.24
30873;BME280;17579;42.690;2.586;2023-04-28T00:04:12;97209.69;;;19.63;50.72
30873;BME280;17579;42.690;2.586;2023-04-28T00:06:38;97211.16;;;19.65;50.46
30873;BME280;17579;42.690;2.586;2023-04-28T00:09:06;97204.75;;;19.66;50.39
30873;BME280;17579;42.690;2.586;2023-04-28T00:11:38;97203.72;;;19.67;50.42
30873;BME280;17579;42.690;2.586;2023-04-28T00:14:09;97204.72;;;19.53;50.44
30873;BME280;17579;42.690;2.586;2023-04-28T00:16:36;97207.63;;;19.51;51.19
30873;BME280;17579;42.690;2.586;2023-04-28T00:19:02;97211.72;;;19.47;51.07
30873;BME280;17579;42.690;2.586;2023-04-28T00:21:33;97208.81;;;19.42;50.95
30873;BME280;17579;42.690;2.586;2023-04-28T00:24:02;97209.66;;;19.43;51.46
30873;BME280;17579;42.690;2.586;2023-04-28T00:26:30;97203.44;;;19.42;51.55
30873;BME280;17579;42.690;2.586;2023-04-28T00:28:56;97197.72;;;19.45;51.83
30873;BME280;17579;42.690;2.586;2023-04-28T00:31:30;97198.53;;;19.46;51.46
30873;BME280;17579;42.690;2.586;2023-04-28T00:33:59;97202.44;;;19.43;51.67
30873;BME280;17579;42.690;2.586;2023-04-28T00:36:31;97198.28;;;19.41;51.59
30873;BME280;17579;42.690;2.586;2023-04-28T00:38:58;97202.84;;;19.40;51.85
30873;BME280;17579;42.690;2.586;2023-04-28T00:41:24;97202.03;;;19.39;51.91
30873;BME280;17579;42.690;2.586;2023-04-28T00:43:49;97195.41;;;19.35;51.86
30873;BME280;17579;42.690;2.586;2023-04-28T00:46:33;97197.84;;;19.30;51.32
30873;BME280;17579;42.690;2.586;2023-04-28T00:49:00;97194.97;;;19.32;52.00
30873;BME280;17579;42.690;2.586;2023-04-28T00:51:31;97189.81;;;19.30;52.04
30873;BME280;17579;42.690;2.586;2023-04-28T00:53:59;97199.28;;;19.26;52.00
30873;BME280;17579;42.690;2.586;2023-04-28T00:56:36;97194.75;;;19.20;51.80
30873;BME280;17579;42.690;2.586;2023-04-28T00:59:22;97194.97;;;19.25;52.20
30873;BME280;17579;42.690;2.586;2023-04-28T01:01:49;97190.41;;;19.19;52.56
30873;BME280;17579;42.690;2.586;2023-04-28T01:04:23;97187.31;;;19.15;52.08
30873;BME280;17579;42.690;2.586;2023-04-28T01:06:57;97193.47;;;19.16;51.96
30873;BME280;17579;42.690;2.586;2023-04-28T01:12:18;97193.84;;;19.06;51.76
30873;BME280;17579;42.690;2.586;2023-04-28T01:14:44;97181.88;;;19.02;51.94
30873;BME280;17579;42.690;2.586;2023-04-28T01:17:20;97187.84;;;18.97;51.97
30873;BME280;17579;42.690;2.586;2023-04-28T01:19:48;97183.09;;;18.93;51.63
30873;BME280;17579;42.690;2.586;2023-04-28T01:22:24;97182.03;;;18.87;51.72
30873;BME280;17579;42.690;2.586;2023-04-28T01:24:49;97188.59;;;18.84;51.92
30873;BME280;17579;42.690;2.586;2023-04-28T01:27:51;97179.06;;;18.75;52.33
30873;BME280;17579;42.690;2.586;2023-04-28T01:30:26;97182.63;;;18.82;52.37
30873;BME280;17579;42.690;2.586;2023-04-28T01:32:54;97173.72;;;18.82;52.41
30873;BME280;17579;42.690;2.586;2023-04-28T01:35:20;97179.28;;;18.80;52.67
30873;BME280;17579;42.690;2.586;2023-04-28T01:37:46;97182.38;;;18.77;52.25
30873;BME280;17579;42.690;2.586;2023-04-28T01:40:12;97178.63;;;18.72;52.23
30873;BME280;17579;42.690;2.586;2023-04-28T01:43:04;97180.06;;;18.67;52.42
30873;BME280;17579;42.690;2.586;2023-04-28T01:45:39;97181.50;;;18.70;52.33
30873;BME280;17579;42.690;2.586;2023-04-28T01:48:10;97182.94;;;18.66;52.43
30873;BME280;17579;42.690;2.586;2023-04-28T01:50:46;97184.34;;;18.62;52.79
30873;BME280;17579;42.690;2.586;2023-04-28T01:53:18;97178.56;;;18.58;52.76
30873;BME280;17579;42.690;2.586;2023-04-28T01:55:48;97184.75;;;18.59;52.80
30873;BME280;17579;42.690;2.586;2023-04-28T01:58:26;97173.84;;;18.60;52.80
30873;BME280;17579;42.690;2.586;2023-04-28T02:00:52;97180.44;;;18.58;52.83
30873;BME280;17579;42.690;2.586;2023-04-28T02:03:40;97181.25;;;18.58;53.09
30873;BME280;17579;42.690;2.586;2023-04-28T02:06:08;97178.97;;;18.55;52.94
30873;BME280;17579;42.690;2.586;2023-04-28T02:08:34;97178.13;;;18.55;52.90
30873;BME280;17579;42.690;2.586;2023-04-28T02:11:03;97182.88;;;18.52;52.59
30873;BME280;17579;42.690;2.586;2023-04-28T02:13:29;97181.00;;;18.53;53.24
30873;BME280;17579;42.690;2.586;2023-04-28T02:15:54;97182.06;;;18.52;52.90
30873;BME280;17579;42.690;2.586;2023-04-28T02:18:26;97182.06;;;18.52;53.27
30873;BME280;17579;42.690;2.586;2023-04-28T02:20:51;97184.94;;;18.50;52.86
30873;BME280;17579;42.690;2.586;2023-04-28T02:23:23;97176.66;;;18.45;52.67
30873;BME280;17579;42.690;2.586;2023-04-28T02:26:08;97173.09;;;18.38;52.96
30873;BME280;17579;42.690;2.586;2023-04-28T02:28:34;97176.41;;;18.40;53.25
30873;BME280;17579;42.690;2.586;2023-04-28T02:33:35;97173.31;;;18.37;53.04
30873;BME280;17579;42.690;2.586;2023-04-28T02:36:07;97166.88;;;18.31;52.91
30873;BME280;17579;42.690;2.586;2023-04-28T02:38:36;97169.75;;;18.29;52.90
30873;BME280;17579;42.690;2.586;2023-04-28T02:41:23;97173.44;;;18.28;52.67
30873;BME280;17579;42.690;2.586;2023-04-28T02:43:54;97176.78;;;18.30;53.16
30873;BME280;17579;42.690;2.586;2023-04-28T02:46:22;97180.47;;;18.29;53.10
30873;BME280;17579;42.690;2.586;2023-04-28T02:48:51;97194.06;;;18.28;52.92
30873;BME280;17579;42.690;2.586;2023-04-28T02:51:29;97187.69;;;18.29;52.86
30873;BME280;17579;42.690;2.586;2023-04-28T02:53:55;97179.19;;;18.25;53.10
30873;BME280;17579;42.690;2.586;2023-04-28T02:56:21;97181.63;;;18.20;53.28
30873;BME280;17579;42.690;2.586;2023-04-28T02:58:47;97181.19;;;18.16;52.98
30873;BME280;17579;42.690;2.586;2023-04-28T03:01:23;97172.91;;;18.11;52.94
30873;BME280;17579;42.690;2.586;2023-04-28T03:04:11;97180.53;;;18.08;53.06
30873;BME280;17579;42.690;2.586;2023-04-28T03:06:42;97186.06;;;18.06;52.87
30873;BME280;17579;42.690;2.586;2023-04-28T03:09:18;97183.97;;;18.02;53.31
30873;BME280;17579;42.690;2.586;2023-04-28T03:11:54;97178.56;;;17.95;53.28
30873;BME280;17579;42.690;2.586;2023-04-28T03:14:19;97178.66;;;17.87;54.17
30873;BME280;17579;42.690;2.586;2023-04-28T03:17:18;97180.66;;;17.78;54.03
30873;BME280;17579;42.690;2.586;2023-04-28T03:19:49;97181.06;;;17.75;54.64
30873;BME280;17579;42.690;2.586;2023-04-28T03:22:27;97179.34;;;17.67;54.31
30873;BME280;17579;42.690;2.586;2023-04-28T03:24:53;97171.75;;;17.71;54.85
30873;BME280;17579;42.690;2.586;2023-04-28T03:27:28;97180.59;;;17.71;54.68
30873;BME280;17579;42.690;2.586;2023-04-28T03:30:06;97171.13;;;17.69;55.11
30873;BME280;17579;42.690;2.586;2023-04-28T03:32:54;97172.34;;;17.66;54.75
30873;BME280;17579;42.690;2.586;2023-04-28T03:38:16;97182.84;;;17.67;54.79
30873;BME280;17579;42.690;2.586;2023-04-28T03:41:08;97183.63;;;17.61;54.51
30873;BME280;17579;42.690;2.586;2023-04-28T03:44:17;97189.78;;;17.62;54.29
30873;BME280;17579;42.690;2.586;2023-04-28T03:46:42;97195.56;;;17.65;54.80
30873;BME280;17579;42.690;2.586;2023-04-28T03:49:21;97199.47;;;17.63;54.40
30873;BME280;17579;42.690;2.586;2023-04-28T03:51:52;97185.44;;;17.61;54.50
30873;BME280;17579;42.690;2.586;2023-04-28T03:54:29;97187.91;;;17.62;54.71
30873;BME280;17579;42.690;2.586;2023-04-28T03:56:56;97194.66;;;17.58;54.59
30873;BME280;17579;42.690;2.586;2023-04-28T03:59:27;97196.91;;;17.55;54.32
30873;BME280;17579;42.690;2.586;2023-04-28T04:02:01;97199.59;;;17.55;54.84
30873;BME280;17579;42.690;2.586;2023-04-28T04:04:29;97192.56;;;17.54;54.82
30873;BME280;17579;42.690;2.586;2023-04-28T04:07:15;97197.09;;;17.53;54.65
30873;BME280;17579;42.690;2.586;2023-04-28T04:09:41;97193.34;;;17.47;54.81
30873;BME280;17579;42.690;2.586;2023-04-28T04:12:07;97194.13;;;17.41;55.25
30873;BME280;17579;42.690;2.586;2023-04-28T04:14:53;97200.19;;;17.35;55.47
30873;BME280;17579;42.690;2.586;2023-04-28T04:17:33;97196.38;;;17.23;55.14
30873;BME280;17579;42.690;2.586;2023-04-28T04:20:02;97204.78;;;17.20;55.08
30873;BME280;17579;42.690;2.586;2023-04-28T04:22:28;97199.97;;;17.15;55.47
30873;BME280;17579;42.690;2.586;2023-04-28T04:24:59;97193.53;;;17.09;55.71
30873;BME280;17579;42.690;2.586;2023-04-28T04:30:44;97203.06;;;16.97;55.60
30873;BME280;17579;42.690;2.586;2023-04-28T04:33:12;97200.84;;;17.01;55.96
30873;BME280;17579;42.690;2.586;2023-04-28T04:35:45;97200.03;;;17.00;56.33
30873;BME280;17579;42.690;2.586;2023-04-28T04:38:23;97204.34;;;17.01;56.08
30873;BME280;17579;42.690;2.586;2023-04-28T04:40:54;97209.69;;;17.01;56.12
30873;BME280;17579;42.690;2.586;2023-04-28T04:43:32;97211.09;;;16.97;56.22
30873;BME280;17579;42.690;2.586;2023-04-28T04:46:09;97218.53;;;17.02;56.46
30873;BME280;17579;42.690;2.586;2023-04-28T04:48:39;97215.41;;;16.98;56.66
30873;BME280;17579;42.690;2.586;2023-04-28T04:51:08;97215.25;;;17.00;56.74
30873;BME280;17579;42.690;2.586;2023-04-28T04:53:37;97221.59;;;16.99;56.39
30873;BME280;17579;42.690;2.586;2023-04-28T04:56:03;97222.41;;;16.99;56.73
30873;BME280;17579;42.690;2.586;2023-04-28T04:58:29;97226.75;;;17.00;56.71
30873;BME280;17579;42.690;2.586;2023-04-28T05:01:21;97230.16;;;16.94;56.16
30873;BME280;17579;42.690;2.586;2023-04-28T05:03:53;97220.38;;;17.01;56.28
30873;BME280;17579;42.690;2.586;2023-04-28T05:06:24;97227.75;;;16.99;56.91
30873;BME280;17579;42.690;2.586;2023-04-28T05:08:50;97222.41;;;16.99;56.92
30873;BME280;17579;42.690;2.586;2023-04-28T05:11:26;97222.22;;;17.01;56.25
30873;BME280;17579;42.690;2.586;2023-04-28T05:17:04;97217.25;;;16.97;56.38
30873;BME280;17579;42.690;2.586;2023-04-28T05:19:40;97211.47;;;16.94;56.35
30873;BME280;17579;42.690;2.586;2023-04-28T05:22:23;97229.22;;;16.87;56.18
30873;BME280;17579;42.690;2.586;2023-04-28T05:24:53;97251.25;;;16.89;56.57
30873;BME280;17579;42.690;2.586;2023-04-28T05:27:22;97241.84;;;16.93;56.92
30873;BME280;17579;42.690;2.586;2023-04-28T05:29:53;97243.88;;;16.91;57.06
30873;BME280;17579;42.690;2.586;2023-04-28T05:32:19;97257.41;;;16.89;57.76
30873;BME280;17579;42.690;2.586;2023-04-28T05:35:10;97250.94;;;16.84;57.41
30873;BME280;17579;42.690;2.586;2023-04-28T05:37:50;97260.00;;;16.97;57.93
30873;BME280;17579;42.690;2.586;2023-04-28T05:40:18;97257.59;;;17.03;58.13
30873;BME280;17579;42.690;2.586;2023-04-28T05:42:44;97241.63;;;17.09;58.50
30873;BME280;17579;42.690;2.586;2023-04-28T05:45:12;97258.78;;;17.15;58.48
30873;BME280;17579;42.690;2.586;2023-04-28T05:47:42;97269.66;;;17.13;58.21
30873;BME280;17579;42.690;2.586;2023-04-28T05:50:08;97263.94;;;17.17;58.45
30873;BME280;17579;42.690;2.586;2023-04-28T05:52:37;97260.25;;;17.18;58.80
30873;BME280;17579;42.690;2.586;2023-04-28T05:55:06;97269.56;;;17.22;58.68
30873;BME280;17579;42.690;2.586;2023-04-28T05:57:35;97268.41;;;17.31;58.93
30873;BME280;17579;42.690;2.586;2023-04-28T06:00:47;97270.47;;;17.29;58.28
30873;BME280;17579;42.690;2.586;2023-04-28T06:03:24;97265.66;;;17.39;58.39
30873;BME280;17579;42.690;2.586;2023-04-28T06:06:01;97268.78;;;17.43;58.55
30873;BME280;17579;42.690;2.586;2023-04-28T06:11:18;97261.38;;;17.45;58.74
30873;BME280;17579;42.690;2.586;2023-04-28T06:13:55;97265.06;;;17.44;59.29
30873;BME280;17579;42.690;2.586;2023-04-28T06:16:41;97256.03;;;17.45;59.03
30873;BME280;17579;42.690;2.586;2023-04-28T06:19:14;97256.63;;;17.40;58.73
30873;BME280;17579;42.690;2.586;2023-04-28T06:21:43;97258.91;;;17.43;59.58
30873;BME280;17579;42.690;2.586;2023-04-28T06:24:17;97279.91;;;17.46;59.58
30873;BME280;17579;42.690;2.586;2023-04-28T06:26:50;97285.66;;;17.43;59.06
30873;BME280;17579;42.690;2.586;2023-04-28T06:29:16;97281.19;;;17.51;59.64
30873;BME280;17579;42.690;2.586;2023-04-28T06:31:56;97279.34;;;17.51;59.31
30873;BME280;17579;42.690;2.586;2023-04-28T06:34:26;97285.44;;;17.60;59.71
30873;BME280;17579;42.690;2.586;2023-04-28T06:37:00;97294.28;;;17.60;59.80
30873;BME280;17579;42.690;2.586;2023-04-28T06:39:51;97291.78;;;17.59;59.62
30873;BME280;17579;42.690;2.586;2023-04-28T06:42:19;97289.81;;;17.67;59.98
30873;BME280;17579;42.690;2.586;2023-04-28T06:45:10;97284.84;;;17.64;59.52
30873;BME280;17579;42.690;2.586;2023-04-28T06:47:36;97286.69;;;17.64;59.97
30873;BME280;17579;42.690;2.586;2023-04-28T06:50:07;97279.44;;;17.58;60.28
30873;BME280;17579;42.690;2.586;2023-04-28T06:52:46;97293.38;;;17.53;60.32
30873;BME280;17579;42.690;2.586;2023-04-28T06:55:14;97293.28;;;17.46;60.44
30873;BME280;17579;42.690;2.586;2023-04-28T06:57:51;97294.38;;;17.52;60.34
30873;BME280;17579;42.690;2.586;2023-04-28T07:00:22;97287.00;;;17.54;60.79
30873;BME280;17579;42.690;2.586;2023-04-28T07:03:00;97288.41;;;17.50;60.51
30873;BME280;17579;42.690;2.586;2023-04-28T07:05:32;97296.63;;;17.48;60.71
30873;BME280;17579;42.690;2.586;2023-04-28T07:08:02;97298.63;;;17.46;60.78
30873;BME280;17579;42.690;2.586;2023-04-28T07:10:27;97295.16;;;17.46;61.16
30873;BME280;17579;42.690;2.586;2023-04-28T07:12:56;97299.00;;;17.43;61.19
30873;BME280;17579;42.690;2.586;2023-04-28T07:15:24;97302.88;;;17.41;61.27
30873;BME280;17579;42.690;2.586;2023-04-28T07:17:54;97303.06;;;17.39;61.63
30873;BME280;17579;42.690;2.586;2023-04-28T07:20:22;97300.59;;;17.38;61.62
30873;BME280;17579;42.690;2.586;2023-04-28T07:22:50;97311.94;;;17.40;61.80
30873;BME280;17579;42.690;2.586;2023-04-28T07:25:16;97313.84;;;17.46;61.88
30873;BME280;17579;42.690;2.586;2023-04-28T07:28:03;97310.81;;;17.49;62.06
30873;BME280;17579;42.690;2.586;2023-04-28T07:30:33;97314.69;;;17.46;61.42
30873;BME280;17579;42.690;2.586;2023-04-28T07:33:05;97318.81;;;17.49;61.70
30873;BME280;17579;42.690;2.586;2023-04-28T07:35:31;97319.03;;;17.47;61.79
30873;BME280;17579;42.690;2.586;2023-04-28T07:38:14;97317.91;;;17.42;61.46
30873;BME280;17579;42.690;2.586;2023-04-28T07:41:03;97328.22;;;17.60;61.18
30873;BME280;17579;42.690;2.586;2023-04-28T07:46:22;97321.81;;;17.76;61.34
30873;BME280;17579;42.690;2.586;2023-04-28T07:48:51;97323.72;;;17.82;61.06
30873;BME280;17579;42.690;2.586;2023-04-28T07:51:52;97316.81;;;17.73;61.22
30873;BME280;17579;42.690;2.586;2023-04-28T07:54:43;97314.22;;;17.79;61.03
30873;BME280;17579;42.690;2.586;2023-04-28T07:57:18;97317.66;;;17.73;61.10
30873;BME280;17579;42.690;2.586;2023-04-28T07:59:57;97325.38;;;17.61;61.48
30873;BME280;17579;42.690;2.586;2023-04-28T08:02:27;97324.50;;;17.61;62.00
30873;BME280;17579;42.690;2.586;2023-04-28T08:04:58;97322.31;;;17.64;62.24
30873;BME280;17579;42.690;2.586;2023-04-28T08:07:33;97320.72;;;17.70;61.75
30873;BME280;17579;42.690;2.586;2023-04-28T08:10:03;97318.09;;;17.77;61.48
30873;BME280;17579;42.690;2.586;2023-04-28T08:12:37;97315.22;;;17.78;61.61
30873;BME280;17579;42.690;2.586;2023-04-28T08:15:23;97325.59;;;17.81;61.93
30873;BME280;17579;42.690;2.586;2023-04-28T08:17:52;97319.28;;;17.89;61.94
30873;BME280;17579;42.690;2.586;2023-04-28T08:20:24;97321.28;;;18.02;61.56
30873;BME280;17579;42.690;2.586;2023-04-28T08:22:57;97319.25;;;18.04;61.11
30873;BME280;17579;42.690;2.586;2023-04-28T08:25:26;97322.28;;;18.01;61.50
30873;BME280;17579;42.690;2.586;2023-04-28T08:27:59;97321.09;;;18.04;61.23
30873;BME280;17579;42.690;2.586;2023-04-28T08:33:31;97314.97;;;18.10;61.41
30873;BME280;17579;42.690;2.586;2023-04-28T08:36:17;97318.91;;;18.14;61.31
30873;BME280;17579;42.690;2.586;2023-04-28T08:39:02;97317.66;;;18.10;61.41
30873;BME280;17579;42.690;2.586;2023-04-28T08:41:31;97310.97;;;18.21;61.76
30873;BME280;17579;42.690;2.586;2023-04-28T08:44:20;97316.50;;;18.19;61.51
30873;BME280;17579;42.690;2.586;2023-04-28T08:46:48;97330.19;;;18.31;61.35
30873;BME280;17579;42.690;2.586;2023-04-28T08:49:34;97333.28;;;18.28;60.97
30873;BME280;17579;42.690;2.586;2023-04-28T08:52:09;97331.22;;;18.30;61.55
30873;BME280;17579;42.690;2.586;2023-04-28T08:54:48;97324.66;;;18.32;61.03
30873;BME280;17579;42.690;2.586;2023-04-28T08:57:29;97321.66;;;18.42;61.27
30873;BME280;17579;42.690;2.586;2023-04-28T09:00:02;97309.53;;;18.46;61.16
30873;BME280;17579;42.690;2.586;2023-04-28T09:02:31;97301.00;;;18.36;61.55
30873;BME280;17579;42.690;2.586;2023-04-28T09:04:57;97320.06;;;18.26;61.92
30873;BME280;17579;42.690;2.586;2023-04-28T09:07:28;97333.78;;;18.16;61.76
30873;BME280;17579;42.690;2.586;2023-04-28T09:15:03;97327.66;;;18.23;61.90
30873;BME280;17579;42.690;2.586;2023-04-28T09:22:41;97334.78;;;18.37;62.20
30873;BME280;17579;42.690;2.586;2023-04-28T09:27:37;97335.81;;;18.36;62.12
30873;BME280;17579;42.690;2.586;2023-04-28T09:30:06;97338.03;;;18.32;61.90
30873;BME280;17579;42.690;2.586;2023-04-28T09:32:36;97342.44;;;18.40;61.85
30873;BME280;17579;42.690;2.586;2023-04-28T09:35:11;97324.63;;;18.54;62.16
30873;BME280;17579;42.690;2.586;2023-04-28T09:37:57;97327.56;;;18.59;61.69
30873;BME280;17579;42.690;2.586;2023-04-28T09:40:33;97323.97;;;18.74;61.69
30873;BME280;17579;42.690;2.586;2023-04-28T09:45:46;97322.44;;;18.64;61.03
30873;BME280;17579;42.690;2.586;2023-04-28T09:50:56;97333.78;;;18.66;60.92
30873;BME280;17579;42.690;2.586;2023-04-28T09:53:27;97327.50;;;18.81;61.36
30873;BME280;17579;42.690;2.586;2023-04-28T09:55:54;97334.19;;;18.92;61.26
30873;BME280;17579;42.690;2.586;2023-04-28T09:58:22;97325.75;;;18.95;60.74
30873;BME280;17579;42.690;2.586;2023-04-28T10:00:52;97320.59;;;18.93;60.90
30873;BME280;17579;42.690;2.586;2023-04-28T10:03:29;97325.75;;;18.95;61.14
30873;BME280;17579;42.690;2.586;2023-04-28T10:06:04;97327.28;;;19.04;60.92
30873;BME280;17579;42.690;2.586;2023-04-28T10:08:36;97323.16;;;19.08;60.91
30873;BME280;17579;42.690;2.586;2023-04-28T10:11:15;97317.41;;;19.11;60.40
30873;BME280;17579;42.690;2.586;2023-04-28T10:14:27;97308.56;;;19.11;60.92
30873;BME280;17579;42.690;2.586;2023-04-28T10:19:44;97300.94;;;19.14;60.35
30873;BME280;17579;42.690;2.586;2023-04-28T10:22:25;97298.44;;;19.13;60.31
30873;BME280;17579;42.690;2.586;2023-04-28T10:27:35;97307.34;;;19.20;60.79
30873;BME280;17579;42.690;2.586;2023-04-28T10:32:37;97301.78;;;19.21;60.53
30873;BME280;17579;42.690;2.586;2023-04-28T10:38:02;97298.34;;;19.34;60.21
30873;BME280;17579;42.690;2.586;2023-04-28T10:40:34;97295.50;;;19.43;59.80
30873;BME280;17579;42.690;2.586;2023-04-28T10:43:03;97291.78;;;19.50;60.23
30873;BME280;17579;42.690;2.586;2023-04-28T10:48:02;97292.28;;;19.74;59.57
30873;BME280;17579;42.690;2.586;2023-04-28T10:50:33;97282.63;;;19.80;59.76
30873;BME280;17579;42.690;2.586;2023-04-28T10:53:04;97278.31;;;19.92;59.30
30873;BME280;17579;42.690;2.586;2023-04-28T10:56:04;97279.16;;;19.93;59.35
30873;BME280;17579;42.690;2.586;2023-04-28T10:58:36;97281.81;;;19.99;58.74
30873;BME280;17579;42.690;2.586;2023-04-28T11:03:48;97285.75;;;20.03;58.36
30873;BME280;17579;42.690;2.586;2023-04-28T11:06:17;97279.34;;;20.11;59.04
30873;BME280;17579;42.690;2.586;2023-04-28T11:08:58;97266.75;;;20.18;58.63
30873;BME280;17579;42.690;2.586;2023-04-28T11:11:32;97264.91;;;20.39;58.69
30873;BME280;17579;42.690;2.586;2023-04-28T11:19:35;97242.38;;;20.73;57.20
30873;BME280;17579;42.690;2.586;2023-04-28T11:22:04;97239.03;;;20.85;57.30
30873;BME280;17579;42.690;2.586;2023-04-28T11:24:36;97236.53;;;20.90;56.72
30873;BME280;17579;42.690;2.586;2023-04-28T11:27:09;97235.94;;;20.88;57.32
30873;BME280;17579;42.690;2.586;2023-04-28T11:29:39;97233.59;;;21.05;56.69
30873;BME280;17579;42.690;2.586;2023-04-28T11:32:06;97236.88;;;21.14;56.63
30873;BME280;17579;42.690;2.586;2023-04-28T11:34:36;97235.63;;;21.16;56.46
30873;BME280;17579;42.690;2.586;2023-04-28T11:37:08;97226.75;;;21.09;55.93
30873;BME280;17579;42.690;2.586;2023-04-28T11:39:55;97221.63;;;21.01;56.26
30873;BME280;17579;42.690;2.586;2023-04-28T11:42:21;97225.75;;;21.03;56.73
30873;BME280;17579;42.690;2.586;2023-04-28T11:44:56;97214.13;;;21.09;56.63
30873;BME280;17579;42.690;2.586;2023-04-28T11:47:34;97210.41;;;21.10;56.54
30873;BME280;17579;42.690;2.586;2023-04-28T11:50:05;97211.59;;;21.15;56.67
30873;BME280;17579;42.690;2.586;2023-04-28T11:55:20;97203.03;;;21.38;56.44
30873;BME280;17579;42.690;2.586;2023-04-28T12:00:37;97203.97;;;21.57;55.38
30873;BME280;17579;42.690;2.586;2023-04-28T12:03:06;97205.28;;;21.41;56.08
30873;BME280;17579;42.690;2.586;2023-04-28T12:05:42;97207.34;;;21.39;56.00
30873;BME280;17579;42.690;2.586;2023-04-28T12:08:11;97199.25;;;21.45;56.63
30873;BME280;17579;42.690;2.586;2023-04-28T12:13:41;97200.47;;;21.50;56.47
30873;BME280;17579;42.690;2.586;2023-04-28T12:16:09;97210.41;;;21.49;56.39
30873;BME280;17579;42.690;2.586;2023-04-28T12:18:59;97203.59;;;21.46;56.45
30873;BME280;17579;42.690;2.586;2023-04-28T12:21:37;97212.81;;;21.71;56.29
30873;BME280;17579;42.690;2.586;2023-04-28T12:24:14;97204.72;;;21.71;55.88
30873;BME280;17579;42.690;2.586;2023-04-28T12:26:43;97197.38;;;21.53;55.37
30873;BME280;17579;42.690;2.586;2023-04-28T12:29:38;97204.50;;;21.34;56.29
30873;BME280;17579;42.690;2.586;2023-04-28T12:32:13;97195.09;;;21.50;56.39
30873;BME280;17579;42.690;2.586;2023-04-28T12:34:52;97208.34;;;21.58;56.19
30873;BME280;17579;42.690;2.586;2023-04-28T12:37:24;97205.78;;;21.70;56.47
30873;BME280;17579;42.690;2.586;2023-04-28T12:39:50;97209.75;;;21.92;55.64
30873;BME280;17579;42.690;2.586;2023-04-28T12:42:21;97207.13;;;21.79;55.02
30873;BME280;17579;42.690;2.586;2023-04-28T12:44:49;97215.53;;;21.64;55.64
30873;BME280;17579;42.690;2.586;2023-04-28T12:47:15;97209.16;;;21.58;55.27
30873;BME280;17579;42.690;2.586;2023-04-28T12:49:43;97210.03;;;21.52;55.19
30873;BME280;17579;42.690;2.586;2023-04-28T12:52:23;97202.38;;;21.42;55.52
30873;BME280;17579;42.690;2.586;2023-04-28T12:55:10;97211.91;;;21.38;56.00
30873;BME280;17579;42.690;2.586;2023-04-28T12:57:41;97216.88;;;21.41;55.77
30873;BME280;17579;42.690;2.586;2023-04-28T13:00:15;97200.94;;;21.40;56.18
30873;BME280;17579;42.690;2.586;2023-04-28T13:02:42;97202.53;;;21.48;55.47
30873;BME280;17579;42.690;2.586;2023-04-28T13:05:23;97201.28;;;21.50;55.75
30873;BME280;17579;42.690;2.586;2023-04-28T13:07:54;97209.59;;;21.42;55.74
30873;BME280;17579;42.690;2.586;2023-04-28T13:10:29;97198.13;;;21.28;55.55
30873;BME280;17579;42.690;2.586;2023-04-28T13:13:01;97194.38;;;21.29;55.93
30873;BME280;17579;42.690;2.586;2023-04-28T13:15:50;97196.91;;;21.17;56.32
30873;BME280;17579;42.690;2.586;2023-04-28T13:18:17;97195.66;;;21.26;56.31
30873;BME280;17579;42.690;2.586;2023-04-28T13:20:59;97197.28;;;21.27;56.08
30873;BME280;17579;42.690;2.586;2023-04-28T13:23:39;97203.13;;;21.18;56.35
30873;BME280;17579;42.690;2.586;2023-04-28T13:26:11;97190.72;;;21.17;56.22
30873;BME280;17579;42.690;2.586;2023-04-28T13:28:42;97195.91;;;21.11;56.59
30873;BME280;17579;42.690;2.586;2023-04-28T13:31:07;97188.25;;;21.08;56.89
30873;BME280;17579;42.690;2.586;2023-04-28T13:33:53;97185.19;;;21.05;56.41
30873;BME280;17579;42.690;2.586;2023-04-28T13:36:24;97184.34;;;21.11;56.71
30873;BME280;17579;42.690;2.586;2023-04-28T13:38:55;97179.66;;;21.32;56.62
30873;BME280;17579;42.690;2.586;2023-04-28T13:41:21;97180.22;;;21.40;56.44
30873;BME280;17579;42.690;2.586;2023-04-28T13:44:10;97169.22;;;21.55;55.98
30873;BME280;17579;42.690;2.586;2023-04-28T13:46:39;97162.19;;;21.54;55.45
30873;BME280;17579;42.690;2.586;2023-04-28T13:49:04;97157.34;;;21.63;55.84
30873;BME280;17579;42.690;2.586;2023-04-28T13:51:53;97168.69;;;21.72;55.10
30873;BME280;17579;42.690;2.586;2023-04-28T13:54:21;97159.78;;;21.71;55.69
30873;BME280;17579;42.690;2.586;2023-04-28T13:59:43;97157.22;;;21.51;55.00
30873;BME280;17579;42.690;2.586;2023-04-28T14:05:38;97140.31;;;21.37;55.71
30873;BME280;17579;42.690;2.586;2023-04-28T14:08:11;97126.16;;;21.17;55.94
30873;BME280;17579;42.690;2.586;2023-04-28T14:11:05;97124.59;;;21.02;56.34
30873;BME280;17579;42.690;2.586;2023-04-28T14:13:36;97122.97;;;20.94;56.20
30873;BME280;17579;42.690;2.586;2023-04-28T14:16:05;97114.72;;;20.89;56.66
30873;BME280;17579;42.690;2.586;2023-04-28T14:18:38;97120.13;;;20.83;56.78
30873;BME280;17579;42.690;2.586;2023-04-28T14:21:04;97115.19;;;20.73;57.04
30873;BME280;17579;42.690;2.586;2023-04-28T14:23:32;97116.06;;;20.67;57.32
30873;BME280;17579;42.690;2.586;2023-04-28T14:26:03;97121.00;;;20.70;57.46
30873;BME280;17579;42.690;2.586;2023-04-28T14:28:29;97116.63;;;20.82;57.53
30873;BME280;17579;42.690;2.586;2023-04-28T14:31:04;97111.75;;;21.04;56.99
30873;BME280;17579;42.690;2.586;2023-04-28T14:33:33;97118.47;;;21.20;56.67
30873;BME280;17579;42.690;2.586;2023-04-28T14:36:08;97113.66;;;21.29;56.38
30873;BME280;17579;42.690;2.586;2023-04-28T14:38:46;97107.25;;;21.30;56.19
30873;BME280;17579;42.690;2.586;2023-04-28T14:41:32;97095.69;;;21.29;56.48
30873;BME280;17579;42.690;2.586;2023-04-28T14:44:14;97110.59;;;21.25;56.58
30873;BME280;17579;42.690;2.586;2023-04-28T14:46:45;97100.06;;;21.24;55.93
30873;BME280;17579;42.690;2.586;2023-04-28T14:49:14;97097.03;;;21.14;56.21
30873;BME280;17579;42.690;2.586;2023-04-28T14:52:07;97084.50;;;20.94;56.52